Time,TemperatureF,DewpointF,PressureIn,WindDirection,WindDirectionDegrees,WindSpeedMPH,WindSpeedGustMPH,Humidity,HourlyPrecipIn,Conditions,Clouds,dailyrainin,SoftwareType,DateUTC
2013-02-19 00:02:00,46.3,39.5,29.96,ESE,108,3.0,5.0,77,0.00,,,0.00,Wunderground v.1.15,2013-02-19 08:02:00,
2013-02-19 00:12:00,46.2,39.7,29.96,ESE,121,3.0,3.0,78,0.00,,,0.00,Wunderground v.1.15,2013-02-19 08:12:00,
2013-02-19 00:22:00,46.0,39.5,29.95,East,101,4.0,5.0,78,0.00,,,0.00,Wunderground v.1.15,2013-02-19 08:22:00,
2013-02-19 00:32:00,45.7,39.2,29.95,SE,141,3.0,3.0,78,0.00,,,0.00,Wunderground v.1.15,2013-02-19 08:32:00,
2013-02-19 00:42:00,45.4,38.9,29.95,SE,145,3.0,3.0,78,0.00,,,0.00,Wunderground v.1.15,2013-02-19 08:42:00,
2013-02-19 00:52:00,45.1,38.6,29.95,ESE,118,2.0,3.0,78,0.00,,,0.00,Wunderground v.1.15,2013-02-19 08:52:00,
2013-02-19 01:02:00,44.9,38.5,29.95,SE,143,3.0,3.0,78,0.00,,,0.00,Wunderground v.1.15,2013-02-19 09:02:00,
2013-02-19 01:12:00,44.7,38.3,29.95,SSW,198,3.0,5.0,78,0.00,,,0.00,Wunderground v.1.15,2013-02-19 09:12:00,
2013-02-19 01:22:00,44.5,38.1,29.95,SE,138,3.0,3.0,78,0.00,,,0.00,Wunderground v.1.15,2013-02-19 09:22:00,
2013-02-19 01:33:00,44.4,38.0,29.95,ESE,108,3.0,4.0,78,0.00,,,0.00,Wunderground v.1.15,2013-02-19 09:33:00,
2013-02-19 01:42:00,44.4,38.0,29.95,SE,141,3.0,3.0,78,0.00,,,0.00,Wunderground v.1.15,2013-02-19 09:42:00,
2013-02-19 01:52:00,44.4,38.0,29.95,SE,125,3.0,3.0,78,0.00,,,0.00,Wunderground v.1.15,2013-02-19 09:52:00,
2013-02-19 02:03:00,44.2,37.8,29.95,SSE,159,3.0,3.0,78,0.00,,,0.00,Wunderground v.1.15,2013-02-19 10:03:00,
2013-02-19 02:12:00,44.1,37.7,29.94,South,173,3.0,3.0,78,0.00,,,0.00,Wunderground v.1.15,2013-02-19 10:12:00,
2013-02-19 02:22:00,43.8,37.7,29.94,SW,236,3.0,3.0,79,0.00,,,0.00,Wunderground v.1.15,2013-02-19 10:22:00,
2013-02-19 02:32:00,43.4,37.6,29.94,ESE,121,3.0,4.0,80,0.00,,,0.00,Wunderground v.1.15,2013-02-19 10:32:00,
2013-02-19 02:42:00,43.1,37.3,29.93,East,98,3.0,3.0,80,0.00,,,0.00,Wunderground v.1.15,2013-02-19 10:42:00,
2013-02-19 02:52:00,42.9,37.5,29.93,SSE,148,3.0,3.0,81,0.00,,,0.00,Wunderground v.1.15,2013-02-19 10:52:00,
2013-02-19 03:03:00,42.7,37.3,29.92,SE,137,2.0,3.0,81,0.00,,,0.00,Wunderground v.1.15,2013-02-19 11:03:00,
2013-02-19 03:12:00,42.7,37.3,29.92,ESE,103,3.0,3.0,81,0.00,,,0.00,Wunderground v.1.15,2013-02-19 11:12:00,
2013-02-19 03:22:00,42.5,37.1,29.92,SE,130,2.0,5.0,81,0.00,,,0.00,Wunderground v.1.15,2013-02-19 11:22:00,
2013-02-19 03:32:00,42.2,37.1,29.93,SE,131,1.0,1.0,82,0.00,,,0.00,Wunderground v.1.15,2013-02-19 11:32:00,
2013-02-19 03:42:00,42.0,36.9,29.92,SE,126,1.0,1.0,82,0.00,,,0.00,Wunderground v.1.15,2013-02-19 11:42:00,
2013-02-19 03:52:00,41.9,36.8,29.93,ESE,121,1.0,2.0,82,0.00,,,0.00,Wunderground v.1.15,2013-02-19 11:52:00,
2013-02-19 04:02:00,41.8,36.7,29.92,ESE,118,2.0,4.0,82,0.00,,,0.00,Wunderground v.1.15,2013-02-19 12:02:00,
2013-02-19 04:12:00,41.8,36.7,29.93,East,84,3.0,5.0,82,0.00,,,0.00,Wunderground v.1.15,2013-02-19 12:12:00,
2013-02-19 04:22:00,41.8,37.0,29.92,ESE,115,2.0,2.0,83,0.00,,,0.00,Wunderground v.1.15,2013-02-19 12:22:00,
2013-02-19 04:32:00,41.8,37.0,29.92,ESE,115,2.0,3.0,83,0.00,,,0.00,Wunderground v.1.15,2013-02-19 12:32:00,
2013-02-19 04:42:00,41.8,37.0,29.92,SE,125,2.0,4.0,83,0.00,,,0.00,Wunderground v.1.15,2013-02-19 12:42:00,
2013-02-19 04:52:00,41.7,36.6,29.93,ESE,105,2.0,3.0,82,0.00,,,0.00,Wunderground v.1.15,2013-02-19 12:52:00,
2013-02-19 05:02:00,41.6,36.8,29.92,SSE,160,2.0,4.0,83,0.00,,,0.00,Wunderground v.1.15,2013-02-19 13:02:00,
2013-02-19 05:12:00,41.7,36.9,29.93,SE,136,3.0,3.0,83,0.00,,,0.00,Wunderground v.1.15,2013-02-19 13:12:00,
2013-02-19 05:22:00,41.7,36.9,29.92,SE,131,2.0,5.0,83,0.00,,,0.00,Wunderground v.1.15,2013-02-19 13:22:00,
2013-02-19 05:32:00,42.0,37.2,29.92,ESE,123,4.0,4.0,83,0.00,,,0.00,Wunderground v.1.15,2013-02-19 13:32:00,
2013-02-19 05:42:00,42.0,36.9,29.92,East,101,4.0,4.0,82,0.00,,,0.00,Wunderground v.1.15,2013-02-19 13:42:00,
2013-02-19 05:52:00,42.0,37.2,29.92,ESE,118,3.0,6.0,83,0.00,,,0.00,Wunderground v.1.15,2013-02-19 13:52:00,
2013-02-19 06:03:00,42.1,37.3,29.92,East,96,4.0,6.0,83,0.00,,,0.00,Wunderground v.1.15,2013-02-19 14:03:00,
2013-02-19 06:12:00,42.2,37.4,29.92,East,92,3.0,3.0,83,0.00,,,0.00,Wunderground v.1.15,2013-02-19 14:12:00,
2013-02-19 06:22:00,42.4,37.6,29.92,East,94,3.0,3.0,83,0.00,,,0.00,Wunderground v.1.15,2013-02-19 14:22:00,
2013-02-19 06:32:00,42.7,37.9,29.91,ESE,116,3.0,5.0,83,0.00,,,0.00,Wunderground v.1.15,2013-02-19 14:32:00,
2013-02-19 06:42:00,43.0,37.9,29.91,SE,136,4.0,4.0,82,0.00,,,0.00,Wunderground v.1.15,2013-02-19 14:42:00,
2013-02-19 06:52:00,43.3,38.2,29.90,SE,131,4.0,4.0,82,0.00,,,0.00,Wunderground v.1.15,2013-02-19 14:52:00,
2013-02-19 07:03:00,43.5,38.1,29.90,SE,130,2.0,2.0,81,0.00,,,0.00,Wunderground v.1.15,2013-02-19 15:03:00,
2013-02-19 07:12:00,43.7,38.3,29.90,SSE,148,2.0,4.0,81,0.00,,,0.00,Wunderground v.1.15,2013-02-19 15:12:00,
2013-02-19 07:22:00,43.8,38.3,29.90,SE,135,4.0,4.0,81,0.00,,,0.00,Wunderground v.1.15,2013-02-19 15:22:00,
2013-02-19 07:32:00,44.1,38.3,29.89,SE,124,3.0,3.0,80,0.00,,,0.00,Wunderground v.1.15,2013-02-19 15:32:00,
2013-02-19 07:42:00,44.4,38.6,29.89,ESE,119,3.0,3.0,80,0.00,,,0.00,Wunderground v.1.15,2013-02-19 15:42:00,
2013-02-19 07:52:00,44.3,38.8,29.89,SSE,159,2.0,2.0,81,0.00,,,0.00,Wunderground v.1.15,2013-02-19 15:52:00,
2013-02-19 08:03:00,44.4,38.6,29.89,ESE,103,3.0,3.0,80,0.00,,,0.00,Wunderground v.1.15,2013-02-19 16:03:00,
2013-02-19 08:12:00,44.5,38.7,29.89,ESE,119,3.0,4.0,80,0.00,,,0.00,Wunderground v.1.15,2013-02-19 16:12:00,
2013-02-19 08:22:00,44.1,39.9,29.89,ENE,65,3.0,3.0,85,0.00,,,0.00,Wunderground v.1.15,2013-02-19 16:22:00,
2013-02-19 08:32:00,43.3,40.3,29.88,SE,134,2.0,2.0,89,0.00,,,0.00,Wunderground v.1.15,2013-02-19 16:32:00,
2013-02-19 08:42:00,42.9,40.2,29.87,SSE,151,4.0,6.0,90,0.00,,,0.00,Wunderground v.1.15,2013-02-19 16:42:00,
2013-02-19 08:52:00,43.2,40.8,29.87,East,96,4.0,4.0,91,0.00,,,0.00,Wunderground v.1.15,2013-02-19 16:52:00,
2013-02-19 09:02:00,43.6,40.9,29.86,ESE,117,3.0,9.0,90,0.00,,,0.00,Wunderground v.1.15,2013-02-19 17:02:00,
2013-02-19 09:12:00,44.0,41.0,29.85,ESE,118,5.0,5.0,89,0.00,,,0.00,Wunderground v.1.15,2013-02-19 17:12:00,
2013-02-19 09:22:00,44.4,41.4,29.84,ESE,103,4.0,4.0,89,0.00,,,0.00,Wunderground v.1.15,2013-02-19 17:22:00,
2013-02-19 09:32:00,44.6,41.3,29.84,ESE,119,3.0,3.0,88,0.00,,,0.00,Wunderground v.1.15,2013-02-19 17:32:00,
2013-02-19 09:42:00,44.9,41.3,29.83,SSE,160,4.0,4.0,87,0.00,,,0.01,Wunderground v.1.15,2013-02-19 17:42:00,
2013-02-19 09:52:00,44.8,41.5,29.83,SSE,151,3.0,3.0,88,0.05,,,0.02,Wunderground v.1.15,2013-02-19 17:52:00,
2013-02-19 10:02:00,44.6,41.8,29.83,SE,134,2.0,2.0,90,0.07,,,0.03,Wunderground v.1.15,2013-02-19 18:02:00,
2013-02-19 10:12:00,44.7,42.2,29.83,SE,141,2.0,2.0,91,0.04,,,0.03,Wunderground v.1.15,2013-02-19 18:12:00,
2013-02-19 10:22:00,44.9,42.4,29.82,ESE,116,2.0,2.0,91,0.00,,,0.04,Wunderground v.1.15,2013-02-19 18:22:00,
2013-02-19 10:32:00,45.2,42.2,29.82,ESE,115,3.0,3.0,89,0.00,,,0.04,Wunderground v.1.15,2013-02-19 18:32:00,
2013-02-19 10:42:00,45.4,42.1,29.81,South,172,3.0,3.0,88,0.00,,,0.04,Wunderground v.1.15,2013-02-19 18:42:00,
2013-02-19 10:52:00,45.3,41.7,29.81,SE,137,2.0,2.0,87,0.08,,,0.06,Wunderground v.1.15,2013-02-19 18:52:00,
2013-02-19 11:03:00,45.0,42.0,29.81,WSW,255,1.0,1.0,89,0.11,,,0.07,Wunderground v.1.15,2013-02-19 19:03:00,
2013-02-19 11:12:00,44.7,41.9,29.81,West,277,2.0,2.0,90,0.13,,,0.09,Wunderground v.1.15,2013-02-19 19:12:00,
2013-02-19 11:22:00,44.5,41.7,29.82,WSW,239,2.0,4.0,90,0.17,,,0.12,Wunderground v.1.15,2013-02-19 19:22:00,
2013-02-19 11:32:00,44.0,41.3,29.81,WSW,248,2.0,2.0,90,0.17,,,0.14,Wunderground v.1.15,2013-02-19 19:32:00,
2013-02-19 11:43:00,43.6,41.4,29.81,SW,233,2.0,2.0,92,0.20,,,0.18,Wunderground v.1.15,2013-02-19 19:43:00,
2013-02-19 11:52:00,43.5,41.3,29.81,West,259,2.0,2.0,92,0.11,,,0.19,Wunderground v.1.15,2013-02-19 19:52:00,
2013-02-19 12:03:00,42.9,40.7,29.81,WSW,253,2.0,2.0,92,0.18,,,0.22,Wunderground v.1.15,2013-02-19 20:03:00,
2013-02-19 12:13:00,42.7,40.5,29.81,SSW,210,1.0,1.0,92,0.09,,,0.24,Wunderground v.1.15,2013-02-19 20:13:00,
2013-02-19 12:22:00,42.7,40.8,29.80,South,172,2.0,5.0,93,0.05,,,0.24,Wunderground v.1.15,2013-02-19 20:22:00,
2013-02-19 12:32:00,42.9,41.0,29.79,SE,141,3.0,3.0,93,0.05,,,0.25,Wunderground v.1.15,2013-02-19 20:32:00,
2013-02-19 12:42:00,43.1,41.2,29.79,SSE,157,3.0,3.0,93,0.00,,,0.25,Wunderground v.1.15,2013-02-19 20:42:00,
2013-02-19 12:52:00,43.1,40.9,29.79,SW,214,2.0,2.0,92,0.00,,,0.25,Wunderground v.1.15,2013-02-19 20:52:00,
2013-02-19 13:03:00,43.1,40.9,29.79,WSW,248,1.0,1.0,92,0.00,,,0.25,Wunderground v.1.15,2013-02-19 21:03:00,
2013-02-19 13:12:00,43.2,41.3,29.79,SW,232,0.0,0.0,93,0.00,,,0.25,Wunderground v.1.15,2013-02-19 21:12:00,
2013-02-19 13:22:00,43.4,41.5,29.78,WSW,246,0.0,0.0,93,0.00,,,0.25,Wunderground v.1.15,2013-02-19 21:22:00,
2013-02-19 13:32:00,43.7,41.8,29.78,SW,217,1.0,1.0,93,0.00,,,0.25,Wunderground v.1.15,2013-02-19 21:32:00,
2013-02-19 13:42:00,44.0,41.8,29.77,SE,128,1.0,1.0,92,0.00,,,0.25,Wunderground v.1.15,2013-02-19 21:42:00,
2013-02-19 13:52:00,44.3,42.1,29.77,WNW,300,1.0,1.0,92,0.00,,,0.25,Wunderground v.1.15,2013-02-19 21:52:00,
2013-02-19 14:03:00,44.0,41.5,29.77,WSW,246,1.0,1.0,91,0.00,,,0.25,Wunderground v.1.15,2013-02-19 22:03:00,
2013-02-19 14:12:00,44.2,41.5,29.77,SSE,165,1.0,1.0,90,0.00,,,0.25,Wunderground v.1.15,2013-02-19 22:12:00,
2013-02-19 14:22:00,44.2,41.5,29.78,SSE,150,1.0,1.0,90,0.00,,,0.25,Wunderground v.1.15,2013-02-19 22:22:00,
2013-02-19 14:32:00,44.1,41.6,29.77,ESE,105,1.0,3.0,91,0.00,,,0.26,Wunderground v.1.15,2013-02-19 22:32:00,
2013-02-19 14:42:00,44.0,41.5,29.77,East,86,4.0,4.0,91,0.00,,,0.26,Wunderground v.1.15,2013-02-19 22:42:00,
2013-02-19 14:52:00,43.9,41.2,29.76,SE,127,5.0,5.0,90,0.00,,,0.27,Wunderground v.1.15,2013-02-19 22:52:00,
2013-02-19 15:03:00,43.5,39.6,29.76,SE,134,3.0,3.0,86,0.00,,,0.27,Wunderground v.1.15,2013-02-19 23:03:00,
2013-02-19 15:12:00,42.8,38.6,29.77,South,186,2.0,2.0,85,0.00,,,0.27,Wunderground v.1.15,2013-02-19 23:12:00,
2013-02-19 15:22:00,42.6,37.8,29.76,SE,143,1.0,1.0,83,0.00,,,0.27,Wunderground v.1.15,2013-02-19 23:22:00,
2013-02-19 15:32:00,42.7,38.2,29.76,ESE,115,1.0,4.0,84,0.00,,,0.27,Wunderground v.1.15,2013-02-19 23:32:00,
2013-02-19 15:42:00,42.7,37.9,29.77,SE,138,2.0,2.0,83,0.00,,,0.27,Wunderground v.1.15,2013-02-19 23:42:00,
2013-02-19 15:52:00,42.7,38.5,29.76,East,86,2.0,4.0,85,0.00,,,0.27,Wunderground v.1.15,2013-02-19 23:52:00,
2013-02-19 16:03:00,42.8,38.6,29.76,East,98,3.0,3.0,85,0.00,,,0.27,Wunderground v.1.15,2013-02-20 00:03:00,
2013-02-19 16:12:00,42.7,38.5,29.76,ESE,115,2.0,2.0,85,0.00,,,0.27,Wunderground v.1.15,2013-02-20 00:12:00,
2013-02-19 16:22:00,42.8,38.9,29.76,SE,131,2.0,3.0,86,0.00,,,0.27,Wunderground v.1.15,2013-02-20 00:22:00,
2013-02-19 16:33:00,42.8,38.9,29.76,ESE,110,2.0,4.0,86,0.00,,,0.27,Wunderground v.1.15,2013-02-20 00:33:00,
2013-02-19 16:42:00,42.7,38.5,29.76,ESE,108,3.0,5.0,85,0.00,,,0.27,Wunderground v.1.15,2013-02-20 00:42:00,
2013-02-19 16:52:00,42.8,38.0,29.76,ESE,117,3.0,3.0,83,0.00,,,0.27,Wunderground v.1.15,2013-02-20 00:52:00,
2013-02-19 17:03:00,43.1,38.0,29.76,ESE,110,3.0,3.0,82,0.00,,,0.27,Wunderground v.1.15,2013-02-20 01:03:00,
2013-02-19 17:12:00,43.2,38.1,29.76,SSE,161,2.0,2.0,82,0.00,,,0.27,Wunderground v.1.15,2013-02-20 01:12:00,
2013-02-19 17:22:00,43.3,37.5,29.76,SE,131,1.0,3.0,80,0.00,,,0.27,Wunderground v.1.15,2013-02-20 01:22:00,
2013-02-19 17:33:00,43.1,37.7,29.76,East,79,2.0,2.0,81,0.00,,,0.27,Wunderground v.1.15,2013-02-20 01:33:00,
2013-02-19 17:42:00,42.9,37.5,29.76,ESE,111,1.0,1.0,81,0.00,,,0.27,Wunderground v.1.15,2013-02-20 01:42:00,
2013-02-19 17:52:00,42.6,37.5,29.76,SE,141,1.0,1.0,82,0.00,,,0.27,Wunderground v.1.15,2013-02-20 01:52:00,
2013-02-19 18:03:00,42.2,37.4,29.76,SE,124,1.0,1.0,83,0.00,,,0.27,Wunderground v.1.15,2013-02-20 02:03:00,
2013-02-19 18:12:00,41.7,37.2,29.76,East,82,0.0,0.0,84,0.00,,,0.27,Wunderground v.1.15,2013-02-20 02:12:00,
2013-02-19 18:22:00,41.3,37.1,29.77,SE,128,0.0,0.0,85,0.00,,,0.27,Wunderground v.1.15,2013-02-20 02:22:00,
2013-02-19 18:33:00,40.8,36.9,29.77,SE,129,0.0,0.0,86,0.00,,,0.27,Wunderground v.1.15,2013-02-20 02:33:00,
2013-02-19 18:42:00,40.5,36.9,29.77,SE,128,0.0,0.0,87,0.00,,,0.27,Wunderground v.1.15,2013-02-20 02:42:00,
2013-02-19 18:52:00,40.3,36.7,29.77,SE,129,0.0,0.0,87,0.00,,,0.27,Wunderground v.1.15,2013-02-20 02:52:00,
2013-02-19 19:03:00,39.7,36.4,29.77,SE,129,0.0,0.0,88,0.00,,,0.27,Wunderground v.1.15,2013-02-20 03:03:00,
2013-02-19 19:12:00,39.2,36.2,29.77,SE,129,0.0,0.0,89,0.00,,,0.27,Wunderground v.1.15,2013-02-20 03:12:00,
2013-02-19 19:22:00,38.7,36.0,29.77,SE,129,0.0,0.0,90,0.00,,,0.27,Wunderground v.1.15,2013-02-20 03:22:00,
2013-02-19 19:32:00,38.5,36.4,29.78,SE,129,0.0,0.0,92,0.00,,,0.27,Wunderground v.1.15,2013-02-20 03:32:00,
2013-02-19 19:42:00,38.7,36.9,29.79,West,275,1.0,1.0,93,0.00,,,0.27,Wunderground v.1.15,2013-02-20 03:42:00,
2013-02-19 19:52:00,39.3,37.7,29.79,West,275,1.0,1.0,94,0.00,,,0.27,Wunderground v.1.15,2013-02-20 03:52:00,
2013-02-19 20:03:00,40.1,37.4,29.79,WNW,293,2.0,2.0,90,0.00,,,0.27,Wunderground v.1.15,2013-02-20 04:03:00,
2013-02-19 20:12:00,39.9,36.9,29.79,WNW,299,2.0,2.0,89,0.00,,,0.27,Wunderground v.1.15,2013-02-20 04:12:00,
2013-02-19 20:22:00,39.7,37.0,29.79,WSW,257,1.0,1.0,90,0.00,,,0.27,Wunderground v.1.15,2013-02-20 04:22:00,
2013-02-19 20:32:00,39.3,36.6,29.79,West,259,1.0,1.0,90,0.00,,,0.27,Wunderground v.1.15,2013-02-20 04:32:00,
2013-02-19 20:42:00,38.7,36.0,29.79,WSW,250,1.0,1.0,90,0.00,,,0.27,Wunderground v.1.15,2013-02-20 04:42:00,
2013-02-19 20:52:00,38.3,35.9,29.80,WSW,250,0.0,0.0,91,0.00,,,0.27,Wunderground v.1.15,2013-02-20 04:52:00,
2013-02-19 21:02:00,38.0,35.6,29.80,NW,309,0.0,0.0,91,0.00,,,0.27,Wunderground v.1.15,2013-02-20 05:02:00,
2013-02-19 21:12:00,37.7,35.6,29.80,NW,309,0.0,0.0,92,0.00,,,0.27,Wunderground v.1.15,2013-02-20 05:12:00,
2013-02-19 21:22:00,37.6,35.5,29.80,NW,309,0.0,0.0,92,0.00,,,0.27,Wunderground v.1.15,2013-02-20 05:22:00,
2013-02-19 21:32:00,37.5,35.4,29.80,NNW,339,0.0,0.0,92,0.00,,,0.27,Wunderground v.1.15,2013-02-20 05:32:00,
2013-02-19 21:42:00,37.1,35.0,29.81,NNW,339,0.0,0.0,92,0.00,,,0.27,Wunderground v.1.15,2013-02-20 05:42:00,
2013-02-19 21:52:00,36.5,34.7,29.80,NNW,338,0.0,0.0,93,0.00,,,0.27,Wunderground v.1.15,2013-02-20 05:52:00,
2013-02-19 22:03:00,36.2,34.4,29.81,NNW,339,0.0,0.0,93,0.00,,,0.27,Wunderground v.1.15,2013-02-20 06:03:00,
2013-02-19 22:12:00,35.8,34.2,29.81,NNW,338,0.0,0.0,94,0.00,,,0.27,Wunderground v.1.15,2013-02-20 06:12:00,
2013-02-19 22:22:00,35.8,34.5,29.82,West,278,0.0,1.0,95,0.00,,,0.27,Wunderground v.1.15,2013-02-20 06:22:00,
2013-02-19 22:32:00,36.1,34.8,29.82,West,273,1.0,1.0,95,0.00,,,0.27,Wunderground v.1.15,2013-02-20 06:32:00,
2013-02-19 22:42:00,36.3,35.0,29.82,West,280,1.0,2.0,95,0.00,,,0.27,Wunderground v.1.15,2013-02-20 06:42:00,
2013-02-19 22:53:00,36.2,34.6,29.83,West,267,1.0,1.0,94,0.00,,,0.27,Wunderground v.1.15,2013-02-20 06:53:00,
2013-02-19 23:03:00,36.1,34.5,29.83,NNW,333,1.0,1.0,94,0.00,,,0.27,Wunderground v.1.15,2013-02-20 07:03:00,
2013-02-19 23:12:00,36.1,34.5,29.83,NW,309,2.0,2.0,94,0.00,,,0.27,Wunderground v.1.15,2013-02-20 07:12:00,
2013-02-19 23:23:00,35.9,34.3,29.83,NW,318,1.0,1.0,94,0.00,,,0.27,Wunderground v.1.15,2013-02-20 07:23:00,
2013-02-19 23:32:00,35.8,34.2,29.84,North,351,1.0,1.0,94,0.00,,,0.27,Wunderground v.1.15,2013-02-20 07:32:00,
2013-02-19 23:42:00,35.5,33.9,29.84,North,358,0.0,0.0,94,0.00,,,0.27,Wunderground v.1.15,2013-02-20 07:42:00,
2013-02-19 23:52:00,35.1,33.5,29.85,North,358,0.0,0.0,94,0.00,,,0.27,Wunderground v.1.15,2013-02-20 07:52:00,